AirNav   Pilot Hours Calculator
 
 811 users online  

2GA5 Windrift Aerodrome
Concord, Georgia, USA

GOING TO CONCORD?


FAA INFORMATION EFFECTIVE 02 JANUARY 2020

Location

FAA Identifier: 2GA5
Lat/Long: 33-02-30.4560N 084-25-55.7200W
33-02.507600N 084-25.928667W
33.0417933,-84.4321444
(estimated)
Elevation: 780 ft. / 238 m (estimated)
Variation: 02W (1985)
From city: 3 miles N of CONCORD, GA
Time zone: UTC -5 (UTC -4 during Daylight Saving Time)
Zip code: 30258

Airport Operations

Airport use: Private use. Permission required prior to landing
Activation date: 04/1990
Control tower: no
ARTCC: ATLANTA CENTER
FSS: MACON FLIGHT SERVICE STATION
Attendance: CONTINUOUS
Wind indicator: yes
Segmented circle: no

Airport Communications

WX AWOS-3 at OPN (10 nm SE): 133.975 (706-646-4123)
WX AWOS-3 at 6A2 (14 nm NE): 119.750 (770-227-3934)

Nearby radio navigation aids

VOR radial/distance  VOR name  Freq  Var
ATLr185/35.2ATLANTA VORTAC116.9005W
LGCr090/38.9LAGRANGE VORTAC115.6001E
CSGr048/39.1COLUMBUS VORTAC117.1001E

 
NDB name  Hdg/Dist  Freq  Var  ID
YATES304/14.433903WOP --- .--.
PECAT175/15.831605WFFC ..-. ..-. -.-.
COWETA COUNTY135/19.123403WEQQ . --.- --.-
PINE MOUNTAIN065/25.227203WPIM .--. .. --

Airport Services

Runway Information

Runway 17/35

Dimensions: 3200 x 80 ft. / 975 x 24 m
Surface: turf
RUNWAY 17  RUNWAY 35
Traffic pattern: leftleft

Airport Ownership and Management from official FAA records

Ownership: Privately-owned
Owner: JOY S. WALKER
400 COLLIER ROAD
CONCORD, GA 30206
Phone (770) 584-2745
Manager: Phone 770-884-5951

Airport Operational Statistics

Aircraft based on the field: 5
Single engine airplanes: 3
Multi engine airplanes: 1
Gliders airplanes: 1
    

Additional Remarks

FOR CD CTC ATLANTA APCH AT 678-364-6131.

Instrument Procedures

There are no published instrument procedures at 2GA5.

Some nearby airports with instrument procedures:

KOPN - Thomaston-Upson County Airport (10 nm SE)
6A2 - Griffin-Spalding County Airport (14 nm NE)
KFFC - Atlanta Regional Airport-Falcon Field (20 nm N)
KHMP - Henry County Airport (21 nm N)
KCCO - Newnan Coweta County Airport (23 nm NW)
 
Loc | Ops | Rwys | IFR | FBO | Links
Com | Nav | Svcs | Stats | Notes
Area around 2GA5 (Windrift Aerodrome)
 
Road maps at: MapQuest Bing Google
 
Aerial photo
No photo
 
Sectional chart

 
Airport distance calculator
Flying to Windrift Aerodrome? Find the distance to fly.

From to 2GA5

Sunrise and sunset
Times for 22-Jan-2020
 Local
(UTC-5)
 Zulu
(UTC)
Morning civil twilight07:1312:13
Sunrise07:4012:40
Sunset17:5922:59
Evening civil twilight18:2623:26

Current date and time
Zulu (UTC)  22-Jan-2020 11:49:25
Local (UTC-5)  22-Jan-2020 06:49:25
 
METAR
KOPN 
10nm SE 
221135Z AUTO 05005KT 10SM CLR M02/M08 A3036 RMK AO2
K6A2 
14nm NE 
221135Z AUTO 05004KT CLR M03/M09 A3035 RMK AO2
KFFC 
20nm N 
221053Z AUTO 00000KT 10SM CLR M05/M08 A3036 RMK AO2 SLP291 T10501083
TAF
KATL 
36nm N 
220947Z 2210/2312 03004KT P6SM FEW250 FM221400 07009KT P6SM FEW250 FM222000 07006KT P6SM SCT250 FM230300 09008KT P6SM BKN200
KCSG 
41nm SW 
220542Z 2206/2306 03006KT P6SM SKC FM221400 07007KT P6SM FEW250 FM222000 07005KT P6SM FEW250 FM230300 07005KT P6SM BKN200
NOTAMs
Click for the latest NOTAMs
NOTAMs are issued by the DoD/FAA and will open in a separate window not controlled by AirNav.

 

 
 

Would you like to see your business listed on this page?

 If your business provides an interesting product or service to pilots, flight crews, aircraft, or users of the Windrift Aerodrome, you should consider listing it here.  To start the listing process, click on the button below
 
Add a business
 

Other Pages about Windrift Aerodrome

Update a link
 
Copyright © AirNav, LLC. All rights reserved. Privacy Policy  Contact